sensor_id;sensor_type;location;lat;lon;timestamp;P1;P2;P0
69349;PMS5003;64554;43.452;4.934;2023-04-07T00:00:30;15.25;15.25;9.75
69349;PMS5003;64554;43.452;4.934;2023-04-07T00:02:57;15.25;15.25;8.50
69349;PMS5003;64554;43.452;4.934;2023-04-07T00:05:24;14.50;14.50;11.00
69349;PMS5003;64554;43.452;4.934;2023-04-07T00:07:51;14.00;13.60;10.00
69349;PMS5003;64554;43.452;4.934;2023-04-07T00:10:23;18.40;16.80;10.60
69349;PMS5003;64554;43.452;4.934;2023-04-07T00:12:49;18.00;18.00;11.00
69349;PMS5003;64554;43.452;4.934;2023-04-07T00:15:16;16.00;15.00;11.20
69349;PMS5003;64554;43.452;4.934;2023-04-07T00:17:42;17.40;16.40;11.00
69349;PMS5003;64554;43.452;4.934;2023-04-07T00:20:09;16.60;16.60;10.00
69349;PMS5003;64554;43.452;4.934;2023-04-07T00:22:36;21.00;19.60;11.60
69349;PMS5003;64554;43.452;4.934;2023-04-07T00:25:03;21.50;20.50;11.50
69349;PMS5003;64554;43.452;4.934;2023-04-07T00:27:32;20.80;19.40;11.00
69349;PMS5003;64554;43.452;4.934;2023-04-07T00:29:59;17.75;17.75;12.00
69349;PMS5003;64554;43.452;4.934;2023-04-07T00:32:25;17.33;15.33;10.33
69349;PMS5003;64554;43.452;4.934;2023-04-07T00:34:52;15.00;14.00;10.00
69349;PMS5003;64554;43.452;4.934;2023-04-07T00:37:18;17.00;16.00;11.00
69349;PMS5003;64554;43.452;4.934;2023-04-07T00:39:45;16.00;16.00;9.75
69349;PMS5003;64554;43.452;4.934;2023-04-07T00:42:12;17.50;16.50;10.50
69349;PMS5003;64554;43.452;4.934;2023-04-07T00:44:38;14.40;14.40;9.00
69349;PMS5003;64554;43.452;4.934;2023-04-07T00:47:05;13.00;13.00;8.40
69349;PMS5003;64554;43.452;4.934;2023-04-07T00:49:31;15.00;13.00;9.60
69349;PMS5003;64554;43.452;4.934;2023-04-07T00:51:58;14.50;14.50;10.50
69349;PMS5003;64554;43.452;4.934;2023-04-07T00:54:24;21.00;19.75;11.00
69349;PMS5003;64554;43.452;4.934;2023-04-07T00:56:51;14.67;14.67;9.67
69349;PMS5003;64554;43.452;4.934;2023-04-07T00:59:18;12.20;12.20;9.20
69349;PMS5003;64554;43.452;4.934;2023-04-07T01:01:47;14.00;14.00;10.75
69349;PMS5003;64554;43.452;4.934;2023-04-07T01:04:27;13.60;13.60;10.00
69349;PMS5003;64554;43.452;4.934;2023-04-07T01:07:00;13.00;13.00;8.40
69349;PMS5003;64554;43.452;4.934;2023-04-07T01:09:35;14.00;13.60;10.00
69349;PMS5003;64554;43.452;4.934;2023-04-07T01:12:11;18.00;17.00;11.00
69349;PMS5003;64554;43.452;4.934;2023-04-07T01:14:49;14.00;13.00;9.00
69349;PMS5003;64554;43.452;4.934;2023-04-07T01:17:17;16.00;14.40;11.40
69349;PMS5003;64554;43.452;4.934;2023-04-07T01:19:47;14.60;14.00;10.00
69349;PMS5003;64554;43.452;4.934;2023-04-07T01:22:20;14.00;12.50;9.00
69349;PMS5003;64554;43.452;4.934;2023-04-07T01:27:30;17.60;16.40;11.00
69349;PMS5003;64554;43.452;4.934;2023-04-07T01:30:00;17.00;16.00;10.00
69349;PMS5003;64554;43.452;4.934;2023-04-07T01:32:27;16.20;14.40;11.00
69349;PMS5003;64554;43.452;4.934;2023-04-07T01:34:55;14.80;14.00;10.00
69349;PMS5003;64554;43.452;4.934;2023-04-07T01:37:22;17.00;14.75;10.00
69349;PMS5003;64554;43.452;4.934;2023-04-07T01:39:50;15.00;15.00;10.00
69349;PMS5003;64554;43.452;4.934;2023-04-07T01:42:16;14.60;14.60;10.40
69349;PMS5003;64554;43.452;4.934;2023-04-07T01:44:44;15.00;13.80;9.20
69349;PMS5003;64554;43.452;4.934;2023-04-07T01:47:11;17.00;16.60;11.00
69349;PMS5003;64554;43.452;4.934;2023-04-07T01:49:39;15.00;15.00;10.00
69349;PMS5003;64554;43.452;4.934;2023-04-07T01:52:06;14.00;12.60;9.00
69349;PMS5003;64554;43.452;4.934;2023-04-07T01:54:33;14.00;12.60;9.40
69349;PMS5003;64554;43.452;4.934;2023-04-07T01:56:59;15.50;15.50;9.50
69349;PMS5003;64554;43.452;4.934;2023-04-07T01:59:26;14.00;14.00;8.50
69349;PMS5003;64554;43.452;4.934;2023-04-07T02:01:53;20.50;19.50;11.00
69349;PMS5003;64554;43.452;4.934;2023-04-07T02:06:53;12.40;12.40;10.00
69349;PMS5003;64554;43.452;4.934;2023-04-07T02:09:21;12.00;12.00;9.00
69349;PMS5003;64554;43.452;4.934;2023-04-07T02:11:50;11.60;11.00;8.40
69349;PMS5003;64554;43.452;4.934;2023-04-07T02:14:17;14.00;12.00;9.00
69349;PMS5003;64554;43.452;4.934;2023-04-07T02:16:46;13.40;13.40;9.40
69349;PMS5003;64554;43.452;4.934;2023-04-07T02:19:14;14.80;12.20;8.20
69349;PMS5003;64554;43.452;4.934;2023-04-07T02:21:41;13.00;13.00;8.75
69349;PMS5003;64554;43.452;4.934;2023-04-07T02:24:07;15.00;14.00;10.00
69349;PMS5003;64554;43.452;4.934;2023-04-07T02:26:36;12.00;12.00;9.00
69349;PMS5003;64554;43.452;4.934;2023-04-07T02:29:03;13.60;13.60;9.00
69349;PMS5003;64554;43.452;4.934;2023-04-07T02:31:30;13.80;13.80;10.00
69349;PMS5003;64554;43.452;4.934;2023-04-07T02:33:56;14.00;14.00;9.00
69349;PMS5003;64554;43.452;4.934;2023-04-07T02:36:23;12.50;11.00;9.00
69349;PMS5003;64554;43.452;4.934;2023-04-07T02:38:49;14.40;13.60;9.00
69349;PMS5003;64554;43.452;4.934;2023-04-07T02:41:16;12.60;12.60;9.00
69349;PMS5003;64554;43.452;4.934;2023-04-07T02:43:42;17.60;15.00;10.40
69349;PMS5003;64554;43.452;4.934;2023-04-07T02:46:09;14.00;12.50;8.50
69349;PMS5003;64554;43.452;4.934;2023-04-07T02:48:36;13.60;13.60;9.40
69349;PMS5003;64554;43.452;4.934;2023-04-07T02:51:02;16.75;14.75;9.75
69349;PMS5003;64554;43.452;4.934;2023-04-07T02:53:29;15.20;13.80;9.80
69349;PMS5003;64554;43.452;4.934;2023-04-07T02:55:55;17.80;14.80;9.40
69349;PMS5003;64554;43.452;4.934;2023-04-07T02:58:22;12.50;12.50;9.00
69349;PMS5003;64554;43.452;4.934;2023-04-07T03:00:48;17.00;16.25;9.75
69349;PMS5003;64554;43.452;4.934;2023-04-07T03:03:16;13.20;12.80;8.00
69349;PMS5003;64554;43.452;4.934;2023-04-07T03:05:43;11.20;11.20;9.00
69349;PMS5003;64554;43.452;4.934;2023-04-07T03:08:09;13.60;13.60;9.60
69349;PMS5003;64554;43.452;4.934;2023-04-07T03:10:38;17.00;14.00;10.00
69349;PMS5003;64554;43.452;4.934;2023-04-07T03:13:05;13.00;12.20;8.00
69349;PMS5003;64554;43.452;4.934;2023-04-07T03:15:33;14.00;14.00;9.00
69349;PMS5003;64554;43.452;4.934;2023-04-07T03:18:00;13.00;13.00;10.00
69349;PMS5003;64554;43.452;4.934;2023-04-07T03:20:26;12.00;12.00;10.00
69349;PMS5003;64554;43.452;4.934;2023-04-07T03:22:53;16.50;12.00;9.00
69349;PMS5003;64554;43.452;4.934;2023-04-07T03:25:19;16.20;15.00;10.00
69349;PMS5003;64554;43.452;4.934;2023-04-07T03:27:46;19.00;17.00;11.80
69349;PMS5003;64554;43.452;4.934;2023-04-07T03:30:13;15.00;14.00;10.00
69349;PMS5003;64554;43.452;4.934;2023-04-07T03:32:39;23.50;21.50;13.00
69349;PMS5003;64554;43.452;4.934;2023-04-07T03:35:06;24.33;23.00;15.00
69349;PMS5003;64554;43.452;4.934;2023-04-07T03:37:33;34.50;32.00;19.75
69349;PMS5003;64554;43.452;4.934;2023-04-07T03:39:59;47.20;39.80;22.20
69349;PMS5003;64554;43.452;4.934;2023-04-07T03:42:26;40.60;36.60;23.00
69349;PMS5003;64554;43.452;4.934;2023-04-07T03:44:53;51.00;43.00;24.60
69349;PMS5003;64554;43.452;4.934;2023-04-07T03:47:19;68.40;55.80;34.00
69349;PMS5003;64554;43.452;4.934;2023-04-07T03:49:46;70.00;57.00;36.00
69349;PMS5003;64554;43.452;4.934;2023-04-07T03:52:12;53.50;43.25;25.75
69349;PMS5003;64554;43.452;4.934;2023-04-07T03:54:39;34.00;32.00;20.00
69349;PMS5003;64554;43.452;4.934;2023-04-07T03:57:05;45.60;37.80;22.00
69349;PMS5003;64554;43.452;4.934;2023-04-07T03:59:32;56.75;46.75;28.00
69349;PMS5003;64554;43.452;4.934;2023-04-07T04:01:58;30.00;29.00;16.75
69349;PMS5003;64554;43.452;4.934;2023-04-07T04:04:25;21.40;19.40;12.40
69349;PMS5003;64554;43.452;4.934;2023-04-07T04:06:52;23.00;21.00;14.00
69349;PMS5003;64554;43.452;4.934;2023-04-07T04:09:18;19.00;18.80;10.20
69349;PMS5003;64554;43.452;4.934;2023-04-07T04:11:46;20.00;18.00;12.00
69349;PMS5003;64554;43.452;4.934;2023-04-07T04:14:12;16.75;15.75;11.00
69349;PMS5003;64554;43.452;4.934;2023-04-07T04:16:39;20.25;19.25;10.00
69349;PMS5003;64554;43.452;4.934;2023-04-07T04:19:05;19.25;19.00;11.50
69349;PMS5003;64554;43.452;4.934;2023-04-07T04:21:32;21.80;20.40;10.40
69349;PMS5003;64554;43.452;4.934;2023-04-07T04:23:59;19.50;17.00;11.50
69349;PMS5003;64554;43.452;4.934;2023-04-07T04:26:25;16.00;14.60;10.40
69349;PMS5003;64554;43.452;4.934;2023-04-07T04:28:52;17.80;17.40;14.40
69349;PMS5003;64554;43.452;4.934;2023-04-07T04:31:18;14.50;14.50;10.50
69349;PMS5003;64554;43.452;4.934;2023-04-07T04:33:45;17.50;15.50;11.00
69349;PMS5003;64554;43.452;4.934;2023-04-07T04:36:11;16.00;16.00;11.40
69349;PMS5003;64554;43.452;4.934;2023-04-07T04:38:38;23.00;20.67;10.33
69349;PMS5003;64554;43.452;4.934;2023-04-07T04:41:05;15.40;13.40;9.40
69349;PMS5003;64554;43.452;4.934;2023-04-07T04:43:32;19.75;18.50;11.00
69349;PMS5003;64554;43.452;4.934;2023-04-07T04:45:58;11.20;11.20;8.00
69349;PMS5003;64554;43.452;4.934;2023-04-07T04:48:25;18.25;16.25;10.75
69349;PMS5003;64554;43.452;4.934;2023-04-07T04:50:52;14.00;14.00;9.25
69349;PMS5003;64554;43.452;4.934;2023-04-07T04:53:19;14.20;12.80;9.00
69349;PMS5003;64554;43.452;4.934;2023-04-07T04:55:45;15.25;14.25;11.00
69349;PMS5003;64554;43.452;4.934;2023-04-07T04:58:17;16.00;15.00;10.00
69349;PMS5003;64554;43.452;4.934;2023-04-07T05:00:44;17.00;14.00;10.00
69349;PMS5003;64554;43.452;4.934;2023-04-07T05:03:10;15.40;15.40;9.20
69349;PMS5003;64554;43.452;4.934;2023-04-07T05:05:39;13.40;13.40;10.40
69349;PMS5003;64554;43.452;4.934;2023-04-07T05:08:05;14.00;14.00;10.00
69349;PMS5003;64554;43.452;4.934;2023-04-07T05:10:32;24.80;24.00;18.00
69349;PMS5003;64554;43.452;4.934;2023-04-07T05:13:03;23.25;22.25;16.00
69349;PMS5003;64554;43.452;4.934;2023-04-07T05:15:29;27.00;25.50;17.50
69349;PMS5003;64554;43.452;4.934;2023-04-07T05:17:56;29.00;28.00;17.25
69349;PMS5003;64554;43.452;4.934;2023-04-07T05:20:22;26.50;25.00;19.00
69349;PMS5003;64554;43.452;4.934;2023-04-07T05:22:49;33.75;27.00;16.75
69349;PMS5003;64554;43.452;4.934;2023-04-07T05:25:15;22.60;22.60;15.60
69349;PMS5003;64554;43.452;4.934;2023-04-07T05:27:42;30.50;27.50;17.00
69349;PMS5003;64554;43.452;4.934;2023-04-07T05:30:08;33.20;29.80;18.20
69349;PMS5003;64554;43.452;4.934;2023-04-07T05:32:37;30.00;26.75;18.00
69349;PMS5003;64554;43.452;4.934;2023-04-07T05:35:04;23.75;21.25;17.50
69349;PMS5003;64554;43.452;4.934;2023-04-07T05:37:31;26.00;26.00;17.00
69349;PMS5003;64554;43.452;4.934;2023-04-07T05:39:58;23.00;23.00;18.50
69349;PMS5003;64554;43.452;4.934;2023-04-07T05:42:25;25.40;23.60;16.00
69349;PMS5003;64554;43.452;4.934;2023-04-07T05:44:52;29.50;25.50;17.00
69349;PMS5003;64554;43.452;4.934;2023-04-07T05:47:18;26.80;24.00;13.80
69349;PMS5003;64554;43.452;4.934;2023-04-07T05:49:45;23.00;22.00;16.00
69349;PMS5003;64554;43.452;4.934;2023-04-07T05:52:12;27.00;24.50;15.00
69349;PMS5003;64554;43.452;4.934;2023-04-07T05:54:39;34.50;28.25;16.00
69349;PMS5003;64554;43.452;4.934;2023-04-07T05:57:06;19.20;19.20;13.00
69349;PMS5003;64554;43.452;4.934;2023-04-07T05:59:33;24.00;21.40;15.40
69349;PMS5003;64554;43.452;4.934;2023-04-07T06:02:00;26.60;23.60;14.00
69349;PMS5003;64554;43.452;4.934;2023-04-07T06:04:26;25.00;21.40;13.00
69349;PMS5003;64554;43.452;4.934;2023-04-07T06:06:53;25.75;25.00;13.00
69349;PMS5003;64554;43.452;4.934;2023-04-07T06:09:21;19.50;17.50;13.00
69349;PMS5003;64554;43.452;4.934;2023-04-07T06:11:47;24.00;20.50;12.50
69349;PMS5003;64554;43.452;4.934;2023-04-07T06:14:14;18.60;17.40;12.00
69349;PMS5003;64554;43.452;4.934;2023-04-07T06:16:40;16.40;16.40;12.00
69349;PMS5003;64554;43.452;4.934;2023-04-07T06:19:07;24.25;22.00;14.00
69349;PMS5003;64554;43.452;4.934;2023-04-07T06:21:33;18.20;14.20;10.60
69349;PMS5003;64554;43.452;4.934;2023-04-07T06:24:00;26.50;26.25;14.75
69349;PMS5003;64554;43.452;4.934;2023-04-07T06:26:27;26.00;25.00;18.00
69349;PMS5003;64554;43.452;4.934;2023-04-07T06:28:54;30.00;29.00;19.00
69349;PMS5003;64554;43.452;4.934;2023-04-07T06:31:20;20.80;19.00;13.00
69349;PMS5003;64554;43.452;4.934;2023-04-07T06:33:47;16.00;14.25;9.25
69349;PMS5003;64554;43.452;4.934;2023-04-07T06:36:14;19.00;15.25;11.00
69349;PMS5003;64554;43.452;4.934;2023-04-07T06:38:41;18.60;14.60;11.00
69349;PMS5003;64554;43.452;4.934;2023-04-07T06:41:07;15.50;14.50;10.00
69349;PMS5003;64554;43.452;4.934;2023-04-07T06:43:37;17.00;16.00;12.00
69349;PMS5003;64554;43.452;4.934;2023-04-07T06:46:03;18.00;18.00;11.00
69349;PMS5003;64554;43.452;4.934;2023-04-07T06:48:30;16.00;15.75;7.75
69349;PMS5003;64554;43.452;4.934;2023-04-07T06:50:57;15.00;12.67;8.33
69349;PMS5003;64554;43.452;4.934;2023-04-07T06:53:23;22.40;20.00;11.60
69349;PMS5003;64554;43.452;4.934;2023-04-07T06:55:50;14.40;13.40;9.40
69349;PMS5003;64554;43.452;4.934;2023-04-07T06:58:17;17.25;12.75;9.75
69349;PMS5003;64554;43.452;4.934;2023-04-07T07:00:43;15.00;15.00;11.75
69349;PMS5003;64554;43.452;4.934;2023-04-07T07:03:10;13.00;13.00;7.80
69349;PMS5003;64554;43.452;4.934;2023-04-07T07:05:37;13.00;12.00;8.00
69349;PMS5003;64554;43.452;4.934;2023-04-07T07:08:03;11.00;11.00;8.40
69349;PMS5003;64554;43.452;4.934;2023-04-07T07:10:30;9.40;9.40;6.80
69349;PMS5003;64554;43.452;4.934;2023-04-07T07:12:57;11.60;10.00;7.00
69349;PMS5003;64554;43.452;4.934;2023-04-07T07:15:24;11.00;11.00;7.00
69349;PMS5003;64554;43.452;4.934;2023-04-07T07:17:50;10.75;10.00;7.50
69349;PMS5003;64554;43.452;4.934;2023-04-07T07:20:17;11.25;11.25;7.50
69349;PMS5003;64554;43.452;4.934;2023-04-07T07:22:44;11.00;9.60;6.00
69349;PMS5003;64554;43.452;4.934;2023-04-07T07:25:10;15.00;11.50;8.00
69349;PMS5003;64554;43.452;4.934;2023-04-07T07:27:37;12.33;11.00;6.67
69349;PMS5003;64554;43.452;4.934;2023-04-07T07:30:04;11.00;10.00;7.00
69349;PMS5003;64554;43.452;4.934;2023-04-07T07:32:31;10.50;9.50;7.00
69349;PMS5003;64554;43.452;4.934;2023-04-07T07:34:58;11.75;11.00;9.00
69349;PMS5003;64554;43.452;4.934;2023-04-07T07:37:24;11.00;10.50;7.00
69349;PMS5003;64554;43.452;4.934;2023-04-07T07:39:51;10.25;10.00;6.75
69349;PMS5003;64554;43.452;4.934;2023-04-07T07:42:18;10.00;8.50;6.75
69349;PMS5003;64554;43.452;4.934;2023-04-07T07:44:44;10.40;10.40;7.40
69349;PMS5003;64554;43.452;4.934;2023-04-07T07:47:11;10.50;10.50;7.75
69349;PMS5003;64554;43.452;4.934;2023-04-07T07:49:37;10.00;10.00;7.40
69349;PMS5003;64554;43.452;4.934;2023-04-07T07:52:04;9.40;9.20;6.00
69349;PMS5003;64554;43.452;4.934;2023-04-07T07:54:31;9.00;9.00;6.60
69349;PMS5003;64554;43.452;4.934;2023-04-07T07:56:57;12.60;12.60;6.00
69349;PMS5003;64554;43.452;4.934;2023-04-07T07:59:24;10.00;7.00;6.00
69349;PMS5003;64554;43.452;4.934;2023-04-07T08:01:50;10.80;10.00;7.40
69349;PMS5003;64554;43.452;4.934;2023-04-07T08:04:17;10.40;9.40;7.00
69349;PMS5003;64554;43.452;4.934;2023-04-07T08:06:44;8.00;8.00;6.00
69349;PMS5003;64554;43.452;4.934;2023-04-07T08:09:11;8.50;8.50;5.50
69349;PMS5003;64554;43.452;4.934;2023-04-07T08:11:37;9.00;8.00;6.00
69349;PMS5003;64554;43.452;4.934;2023-04-07T08:14:04;11.00;11.00;7.40
69349;PMS5003;64554;43.452;4.934;2023-04-07T08:16:32;8.00;8.00;6.00
69349;PMS5003;64554;43.452;4.934;2023-04-07T08:18:58;7.67;7.67;5.33
69349;PMS5003;64554;43.452;4.934;2023-04-07T08:21:25;8.00;8.00;5.00
69349;PMS5003;64554;43.452;4.934;2023-04-07T08:23:53;9.20;9.20;6.00
69349;PMS5003;64554;43.452;4.934;2023-04-07T08:26:19;8.00;8.00;4.40
69349;PMS5003;64554;43.452;4.934;2023-04-07T08:28:48;5.00;5.00;3.00
69349;PMS5003;64554;43.452;4.934;2023-04-07T08:31:15;7.00;6.00;4.00
69349;PMS5003;64554;43.452;4.934;2023-04-07T08:33:42;7.80;7.40;6.00
69349;PMS5003;64554;43.452;4.934;2023-04-07T08:36:08;7.00;6.00;5.00
69349;PMS5003;64554;43.452;4.934;2023-04-07T08:38:35;5.50;5.50;3.00
69349;PMS5003;64554;43.452;4.934;2023-04-07T08:41:02;7.00;7.00;5.00
69349;PMS5003;64554;43.452;4.934;2023-04-07T08:43:29;7.00;5.00;4.50
69349;PMS5003;64554;43.452;4.934;2023-04-07T08:45:56;7.50;5.00;4.00
69349;PMS5003;64554;43.452;4.934;2023-04-07T08:48:23;6.50;6.00;3.00
69349;PMS5003;64554;43.452;4.934;2023-04-07T08:50:53;8.50;8.00;5.00
69349;PMS5003;64554;43.452;4.934;2023-04-07T08:53:25;6.50;6.50;4.50
69349;PMS5003;64554;43.452;4.934;2023-04-07T08:55:55;9.60;8.00;6.00
69349;PMS5003;64554;43.452;4.934;2023-04-07T08:58:21;4.60;4.60;2.60
69349;PMS5003;64554;43.452;4.934;2023-04-07T09:00:48;7.00;5.40;4.00
69349;PMS5003;64554;43.452;4.934;2023-04-07T09:03:15;5.00;5.00;3.00
69349;PMS5003;64554;43.452;4.934;2023-04-07T09:05:43;4.00;4.00;3.60
69349;PMS5003;64554;43.452;4.934;2023-04-07T09:08:11;4.00;4.00;2.40
69349;PMS5003;64554;43.452;4.934;2023-04-07T09:10:38;5.00;5.00;3.00
69349;PMS5003;64554;43.452;4.934;2023-04-07T09:13:04;5.00;5.00;4.00
69349;PMS5003;64554;43.452;4.934;2023-04-07T09:15:31;4.60;4.60;2.60
69349;PMS5003;64554;43.452;4.934;2023-04-07T09:17:58;4.25;4.25;3.50
69349;PMS5003;64554;43.452;4.934;2023-04-07T09:20:24;7.00;5.00;4.00
69349;PMS5003;64554;43.452;4.934;2023-04-07T09:22:51;9.00;9.00;6.50
69349;PMS5003;64554;43.452;4.934;2023-04-07T09:25:18;5.00;4.25;3.00
69349;PMS5003;64554;43.452;4.934;2023-04-07T09:30:23;5.00;5.00;3.80
69349;PMS5003;64554;43.452;4.934;2023-04-07T09:32:50;3.50;3.50;2.00
69349;PMS5003;64554;43.452;4.934;2023-04-07T09:35:17;8.00;5.80;4.00
69349;PMS5003;64554;43.452;4.934;2023-04-07T09:37:44;7.60;7.60;4.60
69349;PMS5003;64554;43.452;4.934;2023-04-07T09:40:11;6.00;5.60;4.40
69349;PMS5003;64554;43.452;4.934;2023-04-07T09:42:44;5.00;5.00;3.00
69349;PMS5003;64554;43.452;4.934;2023-04-07T09:45:11;6.00;6.00;3.75
69349;PMS5003;64554;43.452;4.934;2023-04-07T09:47:56;4.50;4.50;2.50
69349;PMS5003;64554;43.452;4.934;2023-04-07T09:50:39;9.50;7.00;5.25
69349;PMS5003;64554;43.452;4.934;2023-04-07T09:53:06;4.00;4.00;3.00
69349;PMS5003;64554;43.452;4.934;2023-04-07T09:55:33;7.00;5.25;3.25
69349;PMS5003;64554;43.452;4.934;2023-04-07T09:58:00;6.00;4.50;3.00
69349;PMS5003;64554;43.452;4.934;2023-04-07T10:00:27;4.40;4.40;3.00
69349;PMS5003;64554;43.452;4.934;2023-04-07T10:02:55;3.60;3.60;2.00
69349;PMS5003;64554;43.452;4.934;2023-04-07T10:05:21;5.00;4.40;3.00
69349;PMS5003;64554;43.452;4.934;2023-04-07T10:07:49;3.60;3.60;3.00
69349;PMS5003;64554;43.452;4.934;2023-04-07T10:10:15;5.50;5.00;4.00
69349;PMS5003;64554;43.452;4.934;2023-04-07T10:12:42;5.40;3.20;3.00
69349;PMS5003;64554;43.452;4.934;2023-04-07T10:15:15;5.60;4.60;3.00
69349;PMS5003;64554;43.452;4.934;2023-04-07T10:17:44;2.40;2.40;1.40
69349;PMS5003;64554;43.452;4.934;2023-04-07T10:20:12;11.00;9.00;4.00
69349;PMS5003;64554;43.452;4.934;2023-04-07T10:22:39;12.60;9.60;5.00
69349;PMS5003;64554;43.452;4.934;2023-04-07T10:25:10;6.80;4.80;3.40
69349;PMS5003;64554;43.452;4.934;2023-04-07T10:30:21;4.25;4.00;1.25
69349;PMS5003;64554;43.452;4.934;2023-04-07T10:32:50;4.75;2.75;1.75
69349;PMS5003;64554;43.452;4.934;2023-04-07T10:35:17;4.00;4.00;3.00
69349;PMS5003;64554;43.452;4.934;2023-04-07T10:40:29;5.00;5.00;4.00
69349;PMS5003;64554;43.452;4.934;2023-04-07T10:42:57;6.00;6.00;3.00
69349;PMS5003;64554;43.452;4.934;2023-04-07T10:48:10;8.40;8.00;4.40
69349;PMS5003;64554;43.452;4.934;2023-04-07T10:50:37;5.60;5.60;2.00
69349;PMS5003;64554;43.452;4.934;2023-04-07T10:55:31;6.50;5.00;2.50
69349;PMS5003;64554;43.452;4.934;2023-04-07T10:58:11;3.00;3.00;3.00
69349;PMS5003;64554;43.452;4.934;2023-04-07T11:00:39;5.50;5.00;3.00
69349;PMS5003;64554;43.452;4.934;2023-04-07T11:03:11;5.00;4.75;3.75
69349;PMS5003;64554;43.452;4.934;2023-04-07T11:05:39;5.80;4.80;3.00
69349;PMS5003;64554;43.452;4.934;2023-04-07T11:08:06;5.60;4.00;2.60
69349;PMS5003;64554;43.452;4.934;2023-04-07T11:10:33;12.20;8.60;5.20
69349;PMS5003;64554;43.452;4.934;2023-04-07T11:13:01;4.00;2.75;1.00
69349;PMS5003;64554;43.452;4.934;2023-04-07T11:15:28;7.50;5.50;3.25
69349;PMS5003;64554;43.452;4.934;2023-04-07T11:20:53;5.00;5.00;3.00
69349;PMS5003;64554;43.452;4.934;2023-04-07T11:23:21;5.00;5.00;3.60
69349;PMS5003;64554;43.452;4.934;2023-04-07T11:25:50;5.40;5.40;4.00
69349;PMS5003;64554;43.452;4.934;2023-04-07T11:28:18;5.40;4.00;2.00
69349;PMS5003;64554;43.452;4.934;2023-04-07T11:30:48;5.50;4.00;3.00
69349;PMS5003;64554;43.452;4.934;2023-04-07T11:33:20;4.50;4.50;3.50
69349;PMS5003;64554;43.452;4.934;2023-04-07T11:35:57;6.00;6.00;4.00
69349;PMS5003;64554;43.452;4.934;2023-04-07T11:38:25;7.00;6.00;4.00
69349;PMS5003;64554;43.452;4.934;2023-04-07T11:40:53;4.00;4.00;2.00
69349;PMS5003;64554;43.452;4.934;2023-04-07T11:45:47;4.80;4.80;3.20
69349;PMS5003;64554;43.452;4.934;2023-04-07T11:48:28;7.60;4.60;3.00
69349;PMS5003;64554;43.452;4.934;2023-04-07T11:50:55;9.25;5.00;4.00
69349;PMS5003;64554;43.452;4.934;2023-04-07T11:53:25;5.40;4.00;2.20
69349;PMS5003;64554;43.452;4.934;2023-04-07T11:56:08;4.75;4.75;4.25
69349;PMS5003;64554;43.452;4.934;2023-04-07T11:58:35;5.40;5.40;3.40
69349;PMS5003;64554;43.452;4.934;2023-04-07T12:01:03;5.40;5.40;4.00
69349;PMS5003;64554;43.452;4.934;2023-04-07T12:03:32;7.00;7.00;5.00
69349;PMS5003;64554;43.452;4.934;2023-04-07T12:06:00;5.20;5.20;4.00
69349;PMS5003;64554;43.452;4.934;2023-04-07T12:08:36;4.50;4.50;2.50
69349;PMS5003;64554;43.452;4.934;2023-04-07T12:11:03;4.00;4.00;3.50
69349;PMS5003;64554;43.452;4.934;2023-04-07T12:13:30;4.75;4.00;3.00
69349;PMS5003;64554;43.452;4.934;2023-04-07T12:16:00;5.00;5.00;4.00
69349;PMS5003;64554;43.452;4.934;2023-04-07T12:18:27;5.20;5.20;4.00
69349;PMS5003;64554;43.452;4.934;2023-04-07T12:20:53;5.00;5.00;4.00
69349;PMS5003;64554;43.452;4.934;2023-04-07T12:23:21;5.40;5.40;4.00
69349;PMS5003;64554;43.452;4.934;2023-04-07T12:25:47;7.00;7.00;5.00
69349;PMS5003;64554;43.452;4.934;2023-04-07T12:28:14;3.60;3.20;2.20
69349;PMS5003;64554;43.452;4.934;2023-04-07T12:30:40;7.00;7.00;4.00
69349;PMS5003;64554;43.452;4.934;2023-04-07T12:33:07;6.00;5.50;4.00
69349;PMS5003;64554;43.452;4.934;2023-04-07T12:35:34;4.40;4.00;3.00
69349;PMS5003;64554;43.452;4.934;2023-04-07T12:38:00;5.25;5.25;3.75
69349;PMS5003;64554;43.452;4.934;2023-04-07T12:40:28;4.75;4.75;3.75
69349;PMS5003;64554;43.452;4.934;2023-04-07T12:42:54;4.60;4.60;2.60
69349;PMS5003;64554;43.452;4.934;2023-04-07T12:45:23;5.20;5.00;3.60
69349;PMS5003;64554;43.452;4.934;2023-04-07T12:47:50;7.00;5.00;3.00
69349;PMS5003;64554;43.452;4.934;2023-04-07T12:50:16;5.25;4.25;2.25
69349;PMS5003;64554;43.452;4.934;2023-04-07T12:52:43;6.00;6.00;4.00
69349;PMS5003;64554;43.452;4.934;2023-04-07T12:55:10;5.80;5.80;3.20
69349;PMS5003;64554;43.452;4.934;2023-04-07T12:57:36;7.75;7.75;2.50
69349;PMS5003;64554;43.452;4.934;2023-04-07T13:00:04;5.50;5.50;3.00
69349;PMS5003;64554;43.452;4.934;2023-04-07T13:02:31;5.00;5.00;4.00
69349;PMS5003;64554;43.452;4.934;2023-04-07T13:04:58;5.25;5.25;4.50
69349;PMS5003;64554;43.452;4.934;2023-04-07T13:07:24;5.00;5.00;3.25
69349;PMS5003;64554;43.452;4.934;2023-04-07T13:09:51;4.80;4.80;4.00
69349;PMS5003;64554;43.452;4.934;2023-04-07T13:12:18;7.20;6.20;4.80
69349;PMS5003;64554;43.452;4.934;2023-04-07T13:14:44;4.00;4.00;3.00
69349;PMS5003;64554;43.452;4.934;2023-04-07T13:17:25;4.00;4.00;2.50
69349;PMS5003;64554;43.452;4.934;2023-04-07T13:19:52;4.75;4.75;2.00
69349;PMS5003;64554;43.452;4.934;2023-04-07T13:22:19;6.00;6.00;5.00
69349;PMS5003;64554;43.452;4.934;2023-04-07T13:24:49;7.60;7.60;6.00
69349;PMS5003;64554;43.452;4.934;2023-04-07T13:27:15;6.00;5.00;4.00
69349;PMS5003;64554;43.452;4.934;2023-04-07T13:29:42;3.75;3.75;2.00
69349;PMS5003;64554;43.452;4.934;2023-04-07T13:32:09;5.25;5.25;3.00
69349;PMS5003;64554;43.452;4.934;2023-04-07T13:34:38;4.20;4.20;3.20
69349;PMS5003;64554;43.452;4.934;2023-04-07T13:37:05;3.50;3.50;2.00
69349;PMS5003;64554;43.452;4.934;2023-04-07T13:39:32;3.00;3.00;2.00
69349;PMS5003;64554;43.452;4.934;2023-04-07T13:41:58;3.75;3.75;2.75
69349;PMS5003;64554;43.452;4.934;2023-04-07T13:44:25;6.00;3.00;2.00
69349;PMS5003;64554;43.452;4.934;2023-04-07T13:46:52;4.00;3.00;2.00
69349;PMS5003;64554;43.452;4.934;2023-04-07T13:49:19;4.60;4.60;2.60
69349;PMS5003;64554;43.452;4.934;2023-04-07T13:51:47;3.60;3.60;2.60
69349;PMS5003;64554;43.452;4.934;2023-04-07T13:54:14;5.00;4.00;4.00
69349;PMS5003;64554;43.452;4.934;2023-04-07T13:56:42;2.00;2.00;1.50
69349;PMS5003;64554;43.452;4.934;2023-04-07T13:59:08;3.00;3.00;2.00
69349;PMS5003;64554;43.452;4.934;2023-04-07T14:01:36;4.40;3.00;2.40
69349;PMS5003;64554;43.452;4.934;2023-04-07T14:04:05;2.60;2.60;2.20
69349;PMS5003;64554;43.452;4.934;2023-04-07T14:06:32;6.00;5.00;3.00
69349;PMS5003;64554;43.452;4.934;2023-04-07T14:08:58;6.60;5.60;3.00
69349;PMS5003;64554;43.452;4.934;2023-04-07T14:11:25;3.75;3.75;2.00
69349;PMS5003;64554;43.452;4.934;2023-04-07T14:13:53;3.60;3.60;2.60
69349;PMS5003;64554;43.452;4.934;2023-04-07T14:16:20;5.00;5.00;3.40
69349;PMS5003;64554;43.452;4.934;2023-04-07T14:18:46;2.80;2.80;2.80
69349;PMS5003;64554;43.452;4.934;2023-04-07T14:21:14;5.00;5.00;3.00
69349;PMS5003;64554;43.452;4.934;2023-04-07T14:23:41;5.20;4.00;2.60
69349;PMS5003;64554;43.452;4.934;2023-04-07T14:26:10;3.20;3.20;3.00
69349;PMS5003;64554;43.452;4.934;2023-04-07T14:28:37;4.00;4.00;3.00